DL5ARK Weather Reports


time (UTC)temp
C
wind
direction
speed
KPH
gust
KPH
rain 1hr
cm
rain 24hr
cm
rain mn
cm
humidity
%
barometer
mb
20190823085144 20 225 4.8 4.8 0.00 0.00 0.00 64 1025.6
20190823084845 20 225 6.4 6.4 0.00 0.00 0.00 65 1025.6
20190823084545 19 337 1.6 1.6 0.00 0.00 0.00 67 1025.6
20190823083944 19 225 4.8 4.8 0.00 0.00 0.00 67 1025.6
20190823083644 19 247 6.4 6.4 0.00 0.00 0.00 68 1025.6
20190823083345 18 225 3.2 3.2 0.00 0.00 0.00 68 1025.6
20190823083044 18 225 3.2 3.2 0.00 0.00 0.00 68 1025.6
20190823082744 18 225 1.6 1.6 0.00 0.00 0.00 72 1025.6
20190823082444 18 225 4.8 4.8 0.00 0.00 0.00 72 1025.6
20190823082145 18 225 1.6 1.6 0.00 0.00 0.00 72 1025.6
20190823081845 18 337 0.0 0.0 0.00 0.00 0.00 74 1025.6
20190823081546 18 270 1.6 3.2 0.00 0.00 0.00 75 1025.6
20190823081245 18 225 0.0 0.0 0.00 0.00 0.00 76 1025.6
20190823080945 17 270 3.2 3.2 0.00 0.00 0.00 76 1025.6
20190823080646 17 225 3.2 3.2 0.00 0.00 0.00 76 1025.6
20190823080346 17 337 1.6 1.6 0.00 0.00 0.00 76 1025.6
20190823080042 17 247 1.6 1.6 0.00 0.00 0.00 77 1025.6
20190823075744 17 247 1.6 1.6 0.00 0.00 0.00 76 1025.6
20190823075445 17 247 0.0 0.0 0.00 0.00 0.00 77 1025.6
20190823075146 17 247 3.2 3.2 0.00 0.00 0.00 77 1025.6
20190823074842 17 247 0.0 0.0 0.00 0.00 0.00 78 1025.6
20190823074542 16 247 0.0 0.0 0.00 0.00 0.00 78 1025.6
20190823073944 16 247 0.0 0.0 0.00 0.00 0.00 79 1025.6
20190823073645 16 337 0.0 0.0 0.00 0.00 0.00 78 1025.4
20190823073343 16 337 0.0 0.0 0.00 0.00 0.00 79 1025.6
20190823073044 16 247 0.0 0.0 0.00 0.00 0.00 80 1025.6
20190823072445 16 337 0.0 0.0 0.00 0.00 0.00 81 1025.6
20190823072146 16 247 0.0 0.0 0.00 0.00 0.00 81 1025.6
20190823071546 15 270 0.0 0.0 0.00 0.00 0.00 80 1025.6
20190823070946 15 270 0.0 0.0 0.00 0.00 0.00 79 1025.6
20190823070645 15 270 0.0 0.0 0.00 0.00 0.00 79 1025.6
20190823070345 15 270 0.0 0.0 0.00 0.00 0.00 80 1025.6
20190823070044 15 270 0.0 0.0 0.00 0.00 0.00 80 1025.6
20190823065745 14 270 0.0 0.0 0.00 0.00 0.00 79 1025.6
20190823065444 13 270 0.0 0.0 0.00 0.00 0.00 79 1025.6
20190823065144 13 270 0.0 0.0 0.00 0.00 0.00 78 1025.6
20190823064845 13 337 0.0 0.0 0.00 0.00 0.00 78 1025.6
20190823064545 13 270 0.0 0.0 0.00 0.00 0.00 78 1025.6
20190823063945 13 337 0.0 0.0 0.00 0.00 0.00 78 1025.6
20190823063646 13 337 0.0 0.0 0.00 0.00 0.00 77 1025.6
20190823063346 13 270 0.0 0.0 0.00 0.00 0.00 77 1025.6
20190823063045 12 270 0.0 0.0 0.00 0.00 0.00 77 1025.6
20190823062745 12 337 0.0 0.0 0.00 0.00 0.00 76 1025.6
20190823062445 12 270 0.0 0.0 0.00 0.00 0.00 76 1025.6
20190823062146 12 270 0.0 0.0 0.00 0.00 0.00 77 1025.6
20190823061545 12 270 0.0 0.0 0.00 0.00 0.00 76 1025.6
20190823061245 12 270 0.0 0.0 0.00 0.00 0.00 76 1025.6
20190823060945 12 270 0.0 0.0 0.00 0.00 0.00 76 1025.6
20190823060644 12 270 0.0 0.0 0.00 0.00 0.00 76 1025.4
20190823060347 12 270 0.0 0.0 0.00 0.00 0.00 76 1025.6
20190823060044 11 270 0.0 0.0 0.00 0.00 0.00 76 1025.6
20190823055745 11 337 0.0 0.0 0.00 0.00 0.00 75 1025.6
20190823055445 11 270 0.0 0.0 0.00 0.00 0.00 76 1025.6
20190823055145 11 270 0.0 0.0 0.00 0.00 0.00 75 1025.6
20190823054845 11 337 0.0 0.0 0.00 0.00 0.00 76 1025.6
20190823054544 11 270 0.0 0.0 0.00 0.00 0.00 75 1025.4
20190823054245 12 270 0.0 0.0 0.00 0.00 0.00 74 1025.4
20190823053944 12 270 0.0 0.0 0.00 0.00 0.00 73 1025.4
20190823053644 11 270 0.0 0.0 0.00 0.00 0.00 72 1025.2
20190823053344 11 270 0.0 0.0 0.00 0.00 0.00 72 1025.4
20190823053045 11 270 0.0 0.0 0.00 0.00 0.00 72 1025.4
20190823052745 11 270 0.0 0.0 0.00 0.00 0.00 72 1025.4
20190823052444 10 337 0.0 0.0 0.00 0.00 0.00 72 1025.4
20190823051845 9 270 0.0 0.0 0.00 0.00 0.00 72 1025.4
20190823051545 8 270 0.0 0.0 0.00 0.00 0.00 73 1025.6
20190823051245 8 270 0.0 0.0 0.00 0.00 0.00 74 1025.6
20190823050945 8 270 0.0 0.0 0.00 0.00 0.00 75 1025.4
20190823050644 8 270 0.0 0.0 0.00 0.00 0.00 76 1025.6
20190823050346 7 270 0.0 0.0 0.00 0.00 0.00 77 1025.6
20190823050043 7 270 0.0 0.0 0.00 0.00 0.00 77 1025.6
20190823045744 7 270 0.0 0.0 0.00 0.00 0.00 80 1025.6
20190823045443 6 270 0.0 0.0 0.00 0.00 0.00 81 1025.6
20190823045144 6 270 0.0 0.0 0.00 0.00 0.00 81 1025.6
20190823044544 6 270 0.0 0.0 0.00 0.00 0.00 80 1025.6
20190823044244 6 270 0.0 0.0 0.00 0.00 0.00 79 1025.6
20190823043945 6 270 0.0 0.0 0.00 0.00 0.00 79 1025.6
20190823043643 6 270 0.0 0.0 0.00 0.00 0.00 79 1025.6
20190823043345 6 270 0.0 0.0 0.00 0.00 0.00 80 1025.6
20190823042444 6 270 0.0 0.0 0.00 0.00 0.00 80 1025.6
20190823042144 6 270 0.0 0.0 0.00 0.00 0.00 79 1025.6
20190823041844 6 270 0.0 0.0 0.00 0.00 0.00 78 1025.6
20190823041544 6 270 0.0 0.0 0.00 0.00 0.00 78 1025.6
20190823041245 6 270 0.0 0.0 0.00 0.00 0.00 78 1025.6
20190823040945 6 270 0.0 0.0 0.00 0.00 0.00 77 1025.4
20190823040343 6 337 0.0 0.0 0.00 0.00 0.00 77 1025.6
20190823040044 6 270 0.0 0.0 0.00 0.00 0.00 78 1025.4
20190823035745 6 337 0.0 0.0 0.00 0.00 0.00 79 1025.6
20190823035442 6 270 0.0 0.0 0.00 0.00 0.00 78 1025.6
20190823035146 6 270 0.0 0.0 0.00 0.00 0.00 77 1025.4
20190823034544 6 270 0.0 0.0 0.00 0.00 0.00 77 1025.6
20190823034245 6 270 0.0 0.0 0.00 0.00 0.00 78 1025.4
20190823033946 6 270 0.0 0.0 0.00 0.00 0.00 80 1025.4
20190823033646 6 270 0.0 0.0 0.00 0.00 0.00 79 1025.2
20190823033345 6 270 0.0 0.0 0.00 0.00 0.00 78 1025.2
20190823033046 6 270 0.0 0.0 0.00 0.00 0.00 76 1025.2
20190823032444 6 270 0.0 0.0 0.00 0.00 0.00 77 1025.4
20190823032144 6 337 0.0 0.0 0.00 0.00 0.00 76 1025.2
20190823031845 6 337 0.0 0.0 0.00 0.00 0.00 76 1025.4
20190823031546 6 270 0.0 0.0 0.00 0.00 0.00 76 1025.2
20190823031243 6 270 0.0 0.0 0.00 0.00 0.00 76 1025.2
20190823030947 6 270 0.0 0.0 0.00 0.00 0.00 75 1025.2
20190823030644 6 270 0.0 0.0 0.00 0.00 0.00 76 1025.2
20190823030344 6 270 0.0 0.0 0.00 0.00 0.00 76 1025.2
20190823030044 6 270 0.0 0.0 0.00 0.00 0.00 76 1025.2
20190823025745 6 270 0.0 0.0 0.00 0.00 0.00 76 1025.2
20190823025443 6 270 0.0 0.0 0.00 0.00 0.00 76 1025.2
20190823025146 6 270 0.0 0.0 0.00 0.00 0.00 76 1025.2
20190823024844 6 270 0.0 0.0 0.00 0.00 0.00 76 1025.2
20190823024545 6 270 0.0 0.0 0.00 0.00 0.00 76 1025.2
20190823024245 6 270 0.0 0.0 0.00 0.00 0.00 76 1025.2
20190823023946 6 270 0.0 0.0 0.00 0.00 0.00 76 1025.2
20190823023644 6 270 0.0 0.0 0.00 0.00 0.00 76 1025.4
20190823023345 7 270 0.0 0.0 0.00 0.00 0.00 76 1025.4
20190823023044 6 270 0.0 0.0 0.00 0.00 0.00 76 1025.2
20190823022744 6 270 0.0 0.0 0.00 0.00 0.00 75 1025.2
20190823022145 7 270 0.0 0.0 0.00 0.00 0.00 75 1025.2
20190823021547 6 270 0.0 0.0 0.00 0.00 0.00 76 1025.2
20190823021245 6 270 0.0 0.0 0.00 0.00 0.00 76 1025.2
20190823020945 6 270 0.0 0.0 0.00 0.00 0.00 75 1025.2
20190823020644 6 270 0.0 0.0 0.00 0.00 0.00 75 1025.4
20190823020345 6 337 0.0 0.0 0.00 0.00 0.00 75 1025.2
20190823020044 6 270 0.0 0.0 0.00 0.00 0.00 75 1025.2
20190823015744 6 270 0.0 0.0 0.00 0.00 0.00 76 1025.2
20190823015446 6 270 0.0 0.0 0.00 0.00 0.00 76 1025.2
20190823015146 6 270 0.0 0.0 0.00 0.00 0.00 76 1025.2
20190823014842 7 270 0.0 0.0 0.00 0.00 0.00 77 1025.2
20190823014544 7 270 0.0 0.0 0.00 0.00 0.00 76 1025.2
20190823014245 7 270 0.0 0.0 0.00 0.00 0.00 77 1025.2
20190823013942 7 270 0.0 0.0 0.00 0.00 0.00 76 1025.2
20190823013649 7 270 0.0 0.0 0.00 0.00 0.00 77 1025.2
20190823013345 7 270 0.0 0.0 0.00 0.00 0.00 75 1025.2
20190823013044 7 270 0.0 0.0 0.00 0.00 0.00 75 1025.2
20190823012745 7 270 0.0 0.0 0.00 0.00 0.00 76 1025.2
20190823012443 7 270 0.0 0.0 0.00 0.00 0.00 76 1025.2
20190823012144 7 270 0.0 0.0 0.00 0.00 0.00 77 1025.2
20190823011845 7 270 0.0 0.0 0.00 0.00 0.00 78 1025.2
20190823011544 7 270 0.0 0.0 0.00 0.00 0.00 78 1025.2
20190823011245 7 270 0.0 0.0 0.00 0.00 0.00 75 1025.2
20190823010944 7 270 0.0 0.0 0.00 0.00 0.00 75 1025.4
20190823010647 7 270 0.0 0.0 0.00 0.00 0.00 74 1025.2
20190823010344 7 270 0.0 0.0 0.00 0.00 0.00 74 1025.2
20190823010044 7 270 0.0 0.0 0.00 0.00 0.00 74 1025.2
20190823005444 7 270 0.0 0.0 0.00 0.00 0.00 75 1025.4
20190823005145 7 270 0.0 0.0 0.00 0.00 0.00 76 1025.4
20190823004844 7 270 0.0 0.0 0.00 0.00 0.00 76 1025.4
20190823004545 7 337 0.0 0.0 0.00 0.00 0.00 74 1025.4
20190823004244 7 270 0.0 0.0 0.00 0.00 0.00 74 1025.4
20190823003945 7 270 0.0 0.0 0.00 0.00 0.00 73 1025.4
20190823003645 7 270 0.0 0.0 0.00 0.00 0.00 74 1025.4
20190823003345 7 337 0.0 0.0 0.00 0.00 0.00 73 1025.4
20190823003045 7 270 0.0 0.0 0.00 0.00 0.00 74 1025.4
20190823002744 7 270 0.0 0.0 0.00 0.00 0.00 74 1025.2
20190823002446 7 270 0.0 0.0 0.00 0.00 0.00 74 1025.4
20190823002144 7 270 0.0 0.0 0.00 0.00 0.00 74 1025.2
20190823001545 7 270 0.0 0.0 0.00 0.00 0.00 74 1025.4
20190823001244 7 270 0.0 0.0 0.00 0.00 0.00 74 1025.4
20190823000645 7 270 0.0 0.0 0.00 0.00 0.00 76 1025.2
20190823000345 8 270 0.0 0.0 0.00 0.00 0.00 76 1025.2
20190823000044 7 337 0.0 0.0 0.00 0.00 0.00 74 1025.4
20190822235745 7 337 0.0 0.0 0.00 0.00 0.00 73 1025.4
20190822235143 7 270 0.0 0.0 0.00 0.00 0.00 73 1025.6
20190822234846 8 270 0.0 0.0 0.00 0.00 0.00 73 1025.4
20190822234545 8 337 0.0 0.0 0.00 0.00 0.00 73 1025.6
20190822234244 8 270 0.0 0.0 0.00 0.00 0.00 72 1025.4
20190822233944 8 270 0.0 0.0 0.00 0.00 0.00 73 1025.6
20190822233644 8 270 0.0 0.0 0.00 0.00 0.00 73 1025.4
20190822233345 8 270 0.0 0.0 0.00 0.00 0.00 72 1025.4
20190822233045 8 270 0.0 0.0 0.00 0.00 0.00 71 1025.4
20190822232743 8 270 0.0 0.0 0.00 0.00 0.00 71 1025.4
20190822232445 8 270 0.0 0.0 0.00 0.00 0.00 71 1025.4
20190822232145 8 270 0.0 0.0 0.00 0.00 0.00 71 1025.6
20190822231847 8 270 0.0 0.0 0.00 0.00 0.00 71 1025.4
20190822231546 8 270 0.0 0.0 0.00 0.00 0.00 72 1025.4
20190822231245 8 270 0.0 0.0 0.00 0.00 0.00 73 1025.4
20190822230944 8 270 0.0 0.0 0.00 0.00 0.00 72 1025.6
20190822230645 8 337 0.0 0.0 0.00 0.00 0.00 72 1025.4
20190822230345 8 337 0.0 0.0 0.00 0.00 0.00 71 1025.4
20190822230045 8 270 0.0 0.0 0.00 0.00 0.00 71 1025.6
20190822225744 8 270 0.0 0.0 0.00 0.00 0.00 70 1025.6
20190822225444 8 270 0.0 0.0 0.00 0.00 0.00 71 1025.6
20190822225144 8 270 0.0 0.0 0.00 0.00 0.00 71 1025.6
20190822224845 8 337 0.0 0.0 0.00 0.00 0.00 71 1025.4
20190822224246 8 270 0.0 0.0 0.00 0.00 0.00 70 1025.6
20190822223944 8 270 0.0 0.0 0.00 0.00 0.00 70 1025.6
20190822223642 8 270 0.0 0.0 0.00 0.00 0.00 69 1025.6
20190822223345 9 337 0.0 0.0 0.00 0.00 0.00 70 1025.6
20190822223045 9 270 0.0 0.0 0.00 0.00 0.00 70 1025.6
20190822222746 9 270 0.0 0.0 0.00 0.00 0.00 70 1025.4
20190822222443 9 270 0.0 0.0 0.00 0.00 0.00 69 1025.6
20190822222145 9 270 0.0 0.0 0.00 0.00 0.00 69 1025.4
20190822221844 8 270 0.0 0.0 0.00 0.00 0.00 68 1025.6
20190822221543 8 270 0.0 0.0 0.00 0.00 0.00 68 1025.6
20190822221243 10 270 0.0 0.0 0.00 0.00 0.00 69 1025.4
20190822220943 9 270 0.0 0.0 0.00 0.00 0.00 69 1025.4
20190822220645 9 270 0.0 0.0 0.00 0.00 0.00 68 1025.4
20190822220343 9 270 0.0 0.0 0.00 0.00 0.00 68 1025.2
20190822220043 10 270 0.0 0.0 0.00 0.00 0.00 68 1025.2
20190822215445 10 337 0.0 0.0 0.00 0.00 0.00 68 1025.2
20190822214845 10 270 0.0 0.0 0.00 0.00 0.00 68 1025.2
20190822214544 10 270 0.0 0.0 0.00 0.00 0.00 67 1025.2
20190822214244 10 270 0.0 0.0 0.00 0.00 0.00 67 1025.2
20190822213944 10 270 0.0 0.0 0.00 0.00 0.00 68 1025.2
20190822213344 11 270 0.0 0.0 0.00 0.00 0.00 67 1025.2
20190822213044 11 270 0.0 0.0 0.00 0.00 0.00 67 1025.2
20190822212744 11 270 0.0 0.0 0.00 0.00 0.00 67 1025.2
20190822212444 11 270 0.0 0.0 0.00 0.00 0.00 67 1025.2
20190822212144 11 270 0.0 0.0 0.00 0.00 0.00 66 1025.2
20190822211843 11 270 0.0 0.0 0.00 0.00 0.00 66 1025.2
20190822211544 11 270 0.0 0.0 0.00 0.00 0.00 65 1025.2
20190822211244 11 270 0.0 0.0 0.00 0.00 0.00 65 1025.2
20190822210944 12 270 0.0 0.0 0.00 0.00 0.00 65 1025.2
20190822210644 12 337 0.0 0.0 0.00 0.00 0.00 65 1025.2
20190822210345 12 270 0.0 0.0 0.00 0.00 0.00 65 1025.2
20190822210043 12 270 0.0 0.0 0.00 0.00 0.00 65 1025.2
20190822205744 12 270 0.0 0.0 0.00 0.00 0.00 65 1025.2
20190822205446 12 270 1.6 1.6 0.00 0.00 0.00 66 1025.2
20190822205144 12 337 0.0 0.0 0.00 0.00 0.00 66 1025.2
20190822204844 12 247 3.2 3.2 0.00 0.00 0.00 66 1025.2
20190822204544 12 225 0.0 0.0 0.00 0.00 0.00 66 1025.2
20190822204245 12 225 0.0 0.0 0.00 0.00 0.00 66 1025.2
20190822203944 12 225 0.0 0.0 0.00 0.00 0.00 66 1025.2
20190822203644 11 225 0.0 0.0 0.00 0.00 0.00 66 1024.9
20190822203345 11 225 0.0 0.0 0.00 0.00 0.00 66 1025.2
20190822203045 11 225 0.0 0.0 0.00 0.00 0.00 65 1025.2
20190822202745 11 225 0.0 0.0 0.00 0.00 0.00 65 1024.9
20190822202445 11 225 0.0 0.0 0.00 0.00 0.00 65 1025.2
20190822201846 11 225 0.0 0.0 0.00 0.00 0.00 65 1024.9
20190822201245 11 225 0.0 0.0 0.00 0.00 0.00 64 1024.9
20190822200944 11 225 0.0 0.0 0.00 0.00 0.00 64 1024.9
20190822200643 11 225 0.0 0.0 0.00 0.00 0.00 63 1025.2
20190822200345 11 225 0.0 0.0 0.00 0.00 0.00 63 1024.9
20190822200044 11 225 0.0 0.0 0.00 0.00 0.00 63 1024.9
20190822195744 12 225 0.0 0.0 0.00 0.00 0.00 63 1025.2
20190822195146 12 225 0.0 0.0 0.00 0.00 0.00 63 1024.9
20190822194543 12 337 0.0 0.0 0.00 0.00 0.00 63 1024.9
20190822194244 12 225 0.0 0.0 0.00 0.00 0.00 63 1024.9
20190822193944 12 225 0.0 0.0 0.00 0.00 0.00 64 1024.9
20190822193644 12 225 0.0 0.0 0.00 0.00 0.00 63 1024.7
20190822193346 12 225 0.0 0.0 0.00 0.00 0.00 62 1024.9
20190822193044 12 337 0.0 0.0 0.00 0.00 0.00 63 1024.7
20190822192744 12 225 0.0 0.0 0.00 0.00 0.00 63 1024.7
20190822192444 12 225 0.0 0.0 0.00 0.00 0.00 62 1024.7
20190822192146 13 337 0.0 0.0 0.00 0.00 0.00 62 1024.7
20190822191844 13 225 0.0 0.0 0.00 0.00 0.00 61 1024.7
20190822191244 13 225 0.0 0.0 0.00 0.00 0.00 60 1024.7
20190822190944 13 225 0.0 0.0 0.00 0.00 0.00 59 1024.7
20190822190346 13 225 0.0 0.0 0.00 0.00 0.00 60 1024.7
20190822190045 14 225 0.0 0.0 0.00 0.00 0.00 60 1024.7
20190822185744 14 225 0.0 0.0 0.00 0.00 0.00 60 1024.7
20190822185444 15 225 0.0 0.0 0.00 0.00 0.00 60 1024.5
20190822185146 14 225 0.0 0.0 0.00 0.00 0.00 60 1024.7
20190822184844 15 225 0.0 0.0 0.00 0.00 0.00 60 1024.5
20190822184545 15 225 0.0 0.0 0.00 0.00 0.00 57 1024.5
20190822184244 15 225 0.0 0.0 0.00 0.00 0.00 58 1024.2
20190822183944 15 225 0.0 0.0 0.00 0.00 0.00 56 1024.2
20190822183645 16 225 0.0 0.0 0.00 0.00 0.00 55 1024.2
20190822183346 15 225 0.0 0.0 0.00 0.00 0.00 55 1024.2
20190822183044 16 225 0.0 0.0 0.00 0.00 0.00 56 1024.2
20190822182745 17 225 0.0 0.0 0.00 0.00 0.00 55 1024.2
20190822182444 17 225 0.0 0.0 0.00 0.00 0.00 56 1024.2
20190822182144 17 225 0.0 0.0 0.00 0.00 0.00 55 1024.2
20190822181845 17 225 0.0 0.0 0.00 0.00 0.00 54 1024.0
20190822181546 17 225 0.0 0.0 0.00 0.00 0.00 55 1024.2
20190822181244 18 225 0.0 0.0 0.00 0.00 0.00 55 1024.0
20190822180945 18 225 0.0 0.0 0.00 0.00 0.00 55 1024.0
20190822180044 18 225 0.0 0.0 0.00 0.00 0.00 53 1024.0
20190822175744 18 225 0.0 0.0 0.00 0.00 0.00 51 1023.8
20190822175442 19 225 0.0 0.0 0.00 0.00 0.00 50 1024.0
20190822175145 20 337 0.0 0.0 0.00 0.00 0.00 49 1024.0
20190822174845 20 337 0.0 0.0 0.00 0.00 0.00 48 1024.0
20190822174545 20 225 0.0 0.0 0.00 0.00 0.00 45 1024.0
20190822174242 20 225 0.0 0.0 0.00 0.00 0.00 46 1023.8
20190822173945 21 225 1.6 1.6 0.00 0.00 0.00 49 1023.8
20190822173645 22 337 0.0 0.0 0.00 0.00 0.00 50 1023.8
20190822173044 22 225 0.0 0.0 0.00 0.00 0.00 46 1023.8
20190822172743 23 337 0.0 0.0 0.00 0.00 0.00 46 1023.8
20190822172144 23 225 0.0 0.0 0.00 0.00 0.00 40 1023.8
20190822171846 23 225 1.6 1.6 0.00 0.00 0.00 42 1023.8
20190822171244 25 225 0.0 0.0 0.00 0.00 0.00 37 1023.8
20190822170945 25 225 1.6 1.6 0.00 0.00 0.00 37 1023.8
20190822170645 25 225 1.6 3.2 0.00 0.00 0.00 38 1023.8
20190822170343 25 225 0.0 0.0 0.00 0.00 0.00 37 1023.8
20190822170044 25 225 1.6 1.6 0.00 0.00 0.00 38 1023.8
20190822165745 25 247 1.6 1.6 0.00 0.00 0.00 36 1023.8
20190822165445 26 247 0.0 0.0 0.00 0.00 0.00 36 1023.8
20190822165144 26 337 1.6 1.6 0.00 0.00 0.00 37 1023.8
20190822164844 26 157 1.6 1.6 0.00 0.00 0.00 35 1023.5
20190822164545 25 135 0.0 0.0 0.00 0.00 0.00 35 1023.5
20190822163645 26 337 1.6 1.6 0.00 0.00 0.00 35 1023.8
20190822163345 26 135 0.0 0.0 0.00 0.00 0.00 34 1023.8
20190822163045 26 135 0.0 0.0 0.00 0.00 0.00 34 1023.8
20190822162745 26 337 3.2 3.2 0.00 0.00 0.00 33 1023.8
20190822162444 26 157 1.6 1.6 0.00 0.00 0.00 34 1023.8
20190822162142 26 180 1.6 1.6 0.00 0.00 0.00 34 1023.8
20190822161845 27 180 0.0 0.0 0.00 0.00 0.00 35 1023.8
20190822161545 26 180 0.0 0.0 0.00 0.00 0.00 34 1023.5
20190822161243 26 180 0.0 0.0 0.00 0.00 0.00 33 1023.5
20190822160944 26 180 1.6 1.6 0.00 0.00 0.00 34 1023.5
20190822160644 26 180 1.6 1.6 0.00 0.00 0.00 33 1023.5
20190822160345 26 135 0.0 0.0 0.00 0.00 0.00 32 1023.8
20190822160044 26 135 4.8 4.8 0.00 0.00 0.00 33 1023.8
20190822155445 27 157 0.0 0.0 0.00 0.00 0.00 33 1023.5
20190822155145 26 157 0.0 0.0 0.00 0.00 0.00 33 1023.8
20190822154844 26 202 1.6 1.6 0.00 0.00 0.00 33 1023.8
20190822154544 26 225 3.2 3.2 0.00 0.00 0.00 31 1023.8
20190822154245 27 112 1.6 1.6 0.00 0.00 0.00 32 1023.8
20190822153944 26 135 1.6 1.6 0.00 0.00 0.00 33 1023.8
20190822153644 26 337 1.6 1.6 0.00 0.00 0.00 34 1023.8
20190822153045 27 247 3.2 3.2 0.00 0.00 0.00 34 1023.8
20190822152744 27 225 1.6 1.6 0.00 0.00 0.00 34 1023.8
20190822152444 26 202 3.2 3.2 0.00 0.00 0.00 33 1023.8
20190822151845 27 270 4.8 6.4 0.00 0.00 0.00 34 1023.8
20190822151544 26 135 0.0 0.0 0.00 0.00 0.00 34 1023.8
20190822151244 26 135 1.6 1.6 0.00 0.00 0.00 35 1023.8
20190822150945 26 135 4.8 4.8 0.00 0.00 0.00 33 1023.8
20190822150343 26 112 3.2 3.2 0.00 0.00 0.00 31 1023.8
20190822150042 26 180 3.2 3.2 0.00 0.00 0.00 33 1023.8
20190822145747 27 337 1.6 1.6 0.00 0.00 0.00 35 1023.8
20190822145444 27 225 1.6 1.6 0.00 0.00 0.00 36 1023.8
20190822145145 26 225 3.2 3.2 0.00 0.00 0.00 36 1023.8
20190822144844 25 225 3.2 3.2 0.00 0.00 0.00 36 1023.8
20190822144546 25 180 1.6 1.6 0.00 0.00 0.00 35 1024.0
20190822144244 25 135 4.8 4.8 0.00 0.00 0.00 35 1024.0
20190822143945 25 135 0.0 0.0 0.00 0.00 0.00 34 1024.0
20190822143644 25 135 1.6 1.6 0.00 0.00 0.00 35 1024.0
20190822143345 24 157 0.0 0.0 0.00 0.00 0.00 33 1024.0
20190822143045 24 157 3.2 3.2 0.00 0.00 0.00 33 1024.0
20190822142744 25 225 3.2 3.2 0.00 0.00 0.00 36 1024.0
20190822141845 24 337 0.0 0.0 0.00 0.00 0.00 34 1023.8
20190822141544 25 337 8.0 8.0 0.00 0.00 0.00 34 1023.8
20190822141246 24 135 3.2 3.2 0.00 0.00 0.00 35 1024.0
20190822140945 24 90 9.7 9.7 0.00 0.00 0.00 33 1023.8
20190822140644 25 0 1.6 1.6 0.00 0.00 0.00 34 1023.8
20190822140345 24 135 4.8 4.8 0.00 0.00 0.00 34 1024.0
20190822140046 24 225 0.0 0.0 0.00 0.00 0.00 33 1024.2
20190822135743 24 225 0.0 0.0 0.00 0.00 0.00 34 1024.0
20190822135445 24 225 1.6 1.6 0.00 0.00 0.00 34 1024.0
20190822135145 25 112 3.2 3.2 0.00 0.00 0.00 35 1024.2
20190822134845 24 337 1.6 1.6 0.00 0.00 0.00 35 1024.0
20190822134545 24 135 1.6 1.6 0.00 0.00 0.00 36 1024.2
20190822134245 24 337 4.8 4.8 0.00 0.00 0.00 35 1024.2
20190822133943 24 180 4.8 4.8 0.00 0.00 0.00 35 1024.2
20190822133645 24 225 1.6 1.6 0.00 0.00 0.00 37 1024.2
20190822133044 24 180 0.0 0.0 0.00 0.00 0.00 36 1024.2
20190822132745 23 180 1.6 1.6 0.00 0.00 0.00 36 1024.2
20190822132446 23 157 1.6 1.6 0.00 0.00 0.00 35 1024.2
20190822132143 23 135 1.6 3.2 0.00 0.00 0.00 34 1024.2
20190822131845 23 112 8.0 8.0 0.00 0.00 0.00 36 1024.2
20190822131243 23 112 11.3 11.3 0.00 0.00 0.00 36 1024.5
20190822130945 23 67 3.2 3.2 0.00 0.00 0.00 35 1024.5
20190822130645 23 135 1.6 1.6 0.00 0.00 0.00 36 1024.5
20190822130345 23 157 0.0 0.0 0.00 0.00 0.00 35 1024.7
20190822125745 23 157 3.2 3.2 0.00 0.00 0.00 36 1024.7
20190822125445 23 157 1.6 1.6 0.00 0.00 0.00 36 1024.7
20190822125145 23 135 3.2 3.2 0.00 0.00 0.00 36 1024.7
20190822124546 23 135 1.6 1.6 0.00 0.00 0.00 36 1024.5
20190822124244 23 337 4.8 4.8 0.00 0.00 0.00 37 1024.7
20190822123945 23 157 3.2 3.2 0.00 0.00 0.00 37 1024.7
20190822123646 23 135 0.0 0.0 0.00 0.00 0.00 39 1024.7
20190822123345 23 135 1.6 1.6 0.00 0.00 0.00 39 1024.7
20190822122744 23 112 12.9 14.5 0.00 0.00 0.00 38 1024.7
20190822122445 23 135 6.4 6.4 0.00 0.00 0.00 38 1024.7
20190822122147 23 90 4.8 4.8 0.00 0.00 0.00 36 1024.7
20190822121844 23 135 6.4 6.4 0.00 0.00 0.00 37 1024.7
20190822121543 23 337 6.4 6.4 0.00 0.00 0.00 37 1024.7
20190822121245 23 337 1.6 1.6 0.00 0.00 0.00 39 1024.7
20190822120945 23 337 1.6 1.6 0.00 0.00 0.00 39 1024.7
20190822120643 23 157 0.0 0.0 0.00 0.00 0.00 39 1024.7
20190822120345 23 135 3.2 3.2 0.00 0.00 0.00 39 1024.9
20190822120042 23 135 1.6 1.6 0.00 0.00 0.00 39 1024.7
20190822115743 23 135 6.4 6.4 0.00 0.00 0.00 40 1024.7
20190822115445 23 67 3.2 3.2 0.00 0.00 0.00 44 1024.9
20190822115145 23 112 3.2 3.2 0.00 0.00 0.00 41 1024.7
20190822114845 23 112 11.3 11.3 0.00 0.00 0.00 41 1024.9
20190822114243 22 135 1.6 1.6 0.00 0.00 0.00 38 1024.9
20190822113643 23 135 3.2 3.2 0.00 0.00 0.00 43 1025.2
20190822113045 22 180 3.2 3.2 0.00 0.00 0.00 40 1024.9
20190822112744 22 135 1.6 1.6 0.00 0.00 0.00 38 1025.2
20190822112445 22 135 0.0 0.0 0.00 0.00 0.00 43 1024.9
20190822112145 22 135 4.8 4.8 0.00 0.00 0.00 43 1025.2
20190822111846 22 112 0.0 0.0 0.00 0.00 0.00 41 1025.2
20190822111544 22 135 6.4 6.4 0.00 0.00 0.00 43 1025.2
20190822111244 22 112 11.3 11.3 0.00 0.00 0.00 42 1025.2
20190822110344 22 135 0.0 0.0 0.00 0.00 0.00 44 1025.2
20190822105743 22 135 1.6 1.6 0.00 0.00 0.00 41 1025.2
20190822105444 22 337 0.0 0.0 0.00 0.00 0.00 42 1025.2
20190822105144 22 45 1.6 1.6 0.00 0.00 0.00 43 1025.4
20190822104845 22 90 9.7 9.7 0.00 0.00 0.00 44 1025.4
20190822104545 22 112 3.2 3.2 0.00 0.00 0.00 43 1025.4
20190822104245 22 202 3.2 3.2 0.00 0.00 0.00 43 1025.2
20190822103646 22 225 3.2 3.2 0.00 0.00 0.00 48 1025.4
20190822103344 21 157 1.6 3.2 0.00 0.00 0.00 43 1025.4
20190822103044 22 157 1.6 1.6 0.00 0.00 0.00 47 1025.4
20190822102744 21 135 0.0 0.0 0.00 0.00 0.00 44 1025.4
20190822102444 22 157 3.2 3.2 0.00 0.00 0.00 44 1025.6
20190822101845 21 337 9.7 9.7 0.00 0.00 0.00 45 1025.6
20190822101545 21 337 8.0 8.0 0.00 0.00 0.00 46 1025.6
20190822100944 21 135 8.0 8.0 0.00 0.00 0.00 45 1025.6
20190822100644 21 135 3.2 3.2 0.00 0.00 0.00 43 1025.6
20190822100345 21 135 3.2 3.2 0.00 0.00 0.00 44 1025.6
20190822100044 21 135 1.6 1.6 0.00 0.00 0.00 45 1025.6
20190822095744 21 202 3.2 3.2 0.00 0.00 0.00 44 1025.6
20190822095444 22 202 4.8 4.8 0.00 0.00 0.00 48 1025.6
20190822094845 21 135 1.6 3.2 0.00 0.00 0.00 48 1025.6
20190822094542 21 135 8.0 8.0 0.00 0.00 0.00 46 1025.9
20190822094244 21 135 4.8 4.8 0.00 0.00 0.00 45 1025.9
20190822093945 21 337 4.8 4.8 0.00 0.00 0.00 49 1025.9
20190822093645 20 67 0.0 0.0 0.00 0.00 0.00 49 1025.6
20190822093345 20 135 4.8 4.8 0.00 0.00 0.00 48 1025.9
20190822093043 20 135 8.0 8.0 0.00 0.00 0.00 50 1025.9
20190822092744 21 157 3.2 3.2 0.00 0.00 0.00 49 1025.9
20190822092445 20 90 1.6 1.6 0.00 0.00 0.00 49 1025.9
20190822092146 20 135 1.6 1.6 0.00 0.00 0.00 49 1026.1
20190822091244 20 135 6.4 6.4 0.00 0.00 0.00 52 1026.1
20190822090942 20 135 4.8 4.8 0.00 0.00 0.00 53 1026.1
20190822090643 20 112 14.5 14.5 0.00 0.00 0.00 51 1026.1
20190822090344 20 112 4.8 4.8 0.00 0.00 0.00 49 1026.1
20190822090044 20 135 0.0 0.0 0.00 0.00 0.00 51 1026.1
20190822085744 20 135 4.8 4.8 0.00 0.00 0.00 52 1026.1